地図

経路データ

SID SEASON NUMBER BASIN SUBBASIN NAME ISO_TIME NATURE LAT LON WMO_WIND WMO_PRES WMO_AGENCY TRACK_TYPE DIST2LAND LANDFALL IFLAG USA_AGENCY USA_ATCF_ID USA_LAT USA_LON USA_RECORD USA_STATUS USA_WIND USA_PRES USA_SSHS USA_R34_NE USA_R34_SE USA_R34_SW USA_R34_NW USA_R50_NE USA_R50_SE USA_R50_SW USA_R50_NW USA_R64_NE USA_R64_SE USA_R64_SW USA_R64_NW USA_POCI USA_ROCI USA_RMW USA_EYE TOKYO_LAT TOKYO_LON TOKYO_GRADE TOKYO_WIND TOKYO_PRES TOKYO_R50_DIR TOKYO_R50_LONG TOKYO_R50_SHORT TOKYO_R30_DIR TOKYO_R30_LONG TOKYO_R30_SHORT TOKYO_LAND CMA_LAT CMA_LON CMA_CAT CMA_WIND CMA_PRES HKO_LAT HKO_LON HKO_CAT HKO_WIND HKO_PRES NEWDELHI_LAT NEWDELHI_LON NEWDELHI_GRADE NEWDELHI_WIND NEWDELHI_PRES NEWDELHI_CI NEWDELHI_DP NEWDELHI_POCI REUNION_LAT REUNION_LON REUNION_TYPE REUNION_WIND REUNION_PRES REUNION_TNUM REUNION_CI REUNION_RMW REUNION_R34_NE REUNION_R34_SE REUNION_R34_SW REUNION_R34_NW REUNION_R50_NE REUNION_R50_SE REUNION_R50_SW REUNION_R50_NW REUNION_R64_NE REUNION_R64_SE REUNION_R64_SW REUNION_R64_NW BOM_LAT BOM_LON BOM_TYPE BOM_WIND BOM_PRES BOM_TNUM BOM_CI BOM_RMW BOM_R34_NE BOM_R34_SE BOM_R34_SW BOM_R34_NW BOM_R50_NE BOM_R50_SE BOM_R50_SW BOM_R50_NW BOM_R64_NE BOM_R64_SE BOM_R64_SW BOM_R64_NW BOM_ROCI BOM_POCI BOM_EYE BOM_POS_METHOD BOM_PRES_METHOD NADI_LAT NADI_LON NADI_CAT NADI_WIND NADI_PRES WELLINGTON_LAT WELLINGTON_LON WELLINGTON_WIND WELLINGTON_PRES DS824_LAT DS824_LON DS824_STAGE DS824_WIND DS824_PRES TD9636_LAT TD9636_LON TD9636_STAGE TD9636_WIND TD9636_PRES TD9635_LAT TD9635_LON TD9635_WIND TD9635_PRES TD9635_ROCI NEUMANN_LAT NEUMANN_LON NEUMANN_CLASS NEUMANN_WIND NEUMANN_PRES MLC_LAT MLC_LON MLC_CLASS MLC_WIND MLC_PRES USA_GUST BOM_GUST BOM_GUST_PER REUNION_GUST REUNION_GUST_PER USA_SEAHGT USA_SEARAD_NE USA_SEARAD_SE USA_SEARAD_SW USA_SEARAD_NW STORM_SPEED STORM_DIR
1891297N14279 1891 50 NA CS NOT_NAMED 1891-10-23 12:00:00 TS 14.0000 -81.5000 main 186 151 _____________O -1 14.0000 -81.5000 TD 30 7 299
1891297N14279 1891 50 NA CS NOT_NAMED 1891-10-23 15:00:00 TS 14.1626 -81.7999 main 151 118 _____________P -1 14.1626 -81.7999 TD 30 7 297
1891297N14279 1891 50 NA CS NOT_NAMED 1891-10-23 18:00:00 TS 14.3000 -82.1000 main 118 86 _____________O -1 14.3000 -82.1000 TD 30 6 292
1891297N14279 1891 50 NA CS NOT_NAMED 1891-10-23 21:00:00 TS 14.4000 -82.4001 main 86 58 _____________P -1 14.4000 -82.4001 TD 30 6 289
1891297N14279 1891 50 NA CS NOT_NAMED 1891-10-24 00:00:00 TS 14.5000 -82.7000 main 58 32 _____________O -1 14.5000 -82.7000 TD 30 6 294
1891297N14279 1891 50 NA CS NOT_NAMED 1891-10-24 03:00:00 TS 14.6499 -82.9925 main 32 0 _____________P -1 14.6499 -82.9925 TD 30 7 297
1891297N14279 1891 50 NA CS NOT_NAMED 1891-10-24 06:00:00 TS 14.8000 -83.3000 main 0 0 _____________O -1 14.8000 -83.3000 TD 30 7 291
1891297N14279 1891 50 NA NA NOT_NAMED 1891-10-24 09:00:00 TS 14.9000 -83.6501 main 0 0 _____________P -1 14.9000 -83.6501 TD 30 7 286
1891297N14279 1891 50 NA NA NOT_NAMED 1891-10-24 12:00:00 TS 15.0000 -84.0000 main 0 0 _____________O -1 15.0000 -84.0000 TD 30 7 291
1891297N14279 1891 50 NA NA NOT_NAMED 1891-10-24 15:00:00 TS 15.1500 -84.3150 main 0 0 _____________P -1 15.1500 -84.3150 TD 30 7 297
1891297N14279 1891 50 NA NA NOT_NAMED 1891-10-24 18:00:00 TS 15.3000 -84.6000 main 0 0 _____________O -1 15.3000 -84.6000 TD 30 6 296
1891297N14279 1891 50 NA NA NOT_NAMED 1891-10-24 21:00:00 TS 15.3999 -84.8501 main 0 0 _____________P -1 15.3999 -84.8501 TD 30 5 293
1891297N14279 1891 50 NA NA NOT_NAMED 1891-10-25 00:00:00 TS 15.5000 -85.1000 main 0 0 _____________O -1 15.5000 -85.1000 TD 30 6 295
1891297N14279 1891 50 NA NA NOT_NAMED 1891-10-25 03:00:00 TS 15.6500 -85.3999 main 0 0 _____________P -1 15.6500 -85.3999 TD 30 7 297
1891297N14279 1891 50 NA NA NOT_NAMED 1891-10-25 06:00:00 TS 15.8000 -85.7000 main 0 0 _____________O -1 15.8000 -85.7000 TD 30 6 295
1891297N14279 1891 50 NA CS NOT_NAMED 1891-10-25 09:00:00 TS 15.9075 -85.9725 main 10 10 _____________P -1 15.9075 -85.9725 TD 30 5 293
1891297N14279 1891 50 NA CS NOT_NAMED 1891-10-25 12:00:00 TS 16.0000 -86.2000 main 22 22 _____________O -1 16.0000 -86.2000 TD 30 4 298
1891297N14279 1891 50 NA CS NOT_NAMED 1891-10-25 15:00:00 TS 16.1074 -86.3575 main 33 33 _____________P -1 16.1074 -86.3575 TD 30 4 305
1891297N14279 1891 50 NA CS NOT_NAMED 1891-10-25 18:00:00 TS 16.2000 -86.5000 main 46 46 _____________O -1 16.2000 -86.5000 TD 30 4 295
1891297N14279 1891 50 NA CS NOT_NAMED 1891-10-25 21:00:00 TS 16.2575 -86.6925 main 59 55 _____________P -1 16.2575 -86.6925 TD 30 4 285
1891297N14279 1891 50 NA CS NOT_NAMED 1891-10-26 00:00:00 TS 16.3000 -86.9000 main 55 55 _____________O -1 16.3000 -86.9000 TD 30 4 283
1891297N14279 1891 50 NA CS NOT_NAMED 1891-10-26 03:00:00 TS 16.3500 -87.1150 main 67 67 _____________P -1 16.3500 -87.1150 TD 32 4 285
1891297N14279 1891 50 NA CS NOT_NAMED 1891-10-26 06:00:00 TS 16.4000 -87.3000 main 67 67 _____________O -1 16.4000 -87.3000 TS 35 3 286
1891297N14279 1891 50 NA CS NOT_NAMED 1891-10-26 09:00:00 TS 16.4350 -87.4300 main 67 67 _____________P -1 16.4350 -87.4300 TS 37 2 297
1891297N14279 1891 50 NA CS NOT_NAMED 1891-10-26 12:00:00 TS 16.5000 -87.5000 main 78 78 _____________O -1 16.5000 -87.5000 TS 40 2 334
1891297N14279 1891 50 NA CS NOT_NAMED 1891-10-26 15:00:00 TS 16.6425 -87.5300 main 86 77 _____________P -1 16.6425 -87.5300 TS 42 3 0
1891297N14279 1891 50 NA CS NOT_NAMED 1891-10-26 18:00:00 TS 16.8000 -87.5000 main 77 75 _____________O -1 16.8000 -87.5000 TS 45 3 20
1891297N14279 1891 50 NA CS NOT_NAMED 1891-10-26 21:00:00 TS 16.9000 -87.4300 main 85 85 _____________P -1 16.9000 -87.4300 TS 47 3 44
1891297N14279 1891 50 NA CS NOT_NAMED 1891-10-27 00:00:00 TS 17.0000 -87.3000 main 95 95 _____________O -1 17.0000 -87.3000 TS 50 4 50
1891297N14279 1891 50 NA CS NOT_NAMED 1891-10-27 03:00:00 TS 17.1500 -87.1150 main 119 119 _____________P -1 17.1500 -87.1150 TS 52 5 52
1891297N14279 1891 50 NA CS NOT_NAMED 1891-10-27 06:00:00 TS 17.3000 -86.9000 main 138 138 _____________O -1 17.3000 -86.9000 TS 55 4 56
1891297N14279 1891 50 NA CS NOT_NAMED 1891-10-27 09:00:00 TS 17.3999 -86.7299 main 146 146 _____________P -1 17.3999 -86.7299 TS 55 4 62
1891297N14279 1891 50 NA CS NOT_NAMED 1891-10-27 12:00:00 TS 17.5000 -86.5000 main 158 158 _____________O -1 17.5000 -86.5000 TS 55 6 67
1891297N14279 1891 50 NA CS NOT_NAMED 1891-10-27 15:00:00 TS 17.6426 -86.1226 main 191 188 _____________P -1 17.6426 -86.1226 TS 55 8 68
1891297N14279 1891 50 NA CS NOT_NAMED 1891-10-27 18:00:00 TS 17.8000 -85.7000 main 212 212 _____________O -1 17.8000 -85.7000 TS 55 8 68
1891297N14279 1891 50 NA CS NOT_NAMED 1891-10-27 21:00:00 TS 17.9424 -85.3499 main 223 223 _____________P -1 17.9424 -85.3499 TS 55 7 66
1891297N14279 1891 50 NA CS NOT_NAMED 1891-10-28 00:00:00 TS 18.1000 -85.0000 main 246 246 _____________O -1 18.1000 -85.0000 TS 55 8 63
1891297N14279 1891 50 NA CS NOT_NAMED 1891-10-28 03:00:00 TS 18.3000 -84.6001 main 268 268 _____________P -1 18.3000 -84.6001 TS 55 9 62
1891297N14279 1891 50 NA CS NOT_NAMED 1891-10-28 06:00:00 TS 18.5000 -84.2000 main 295 295 _____________O -1 18.5000 -84.2000 TS 55 8 63
1891297N14279 1891 50 NA CS NOT_NAMED 1891-10-28 09:00:00 TS 18.6573 -83.8498 main 319 299 _____________P -1 18.6573 -83.8498 TS 55 7 66
1891297N14279 1891 50 NA CS NOT_NAMED 1891-10-28 12:00:00 TS 18.8000 -83.5000 main 299 281 _____________O -1 18.8000 -83.5000 TS 55 8 68
1891297N14279 1891 50 NA CS NOT_NAMED 1891-10-28 15:00:00 TS 18.9425 -83.0999 main 281 257 _____________P -1 18.9425 -83.0999 TS 55 8 68
1891297N14279 1891 50 NA CS NOT_NAMED 1891-10-28 18:00:00 TS 19.1000 -82.7000 main 257 238 _____________O -1 19.1000 -82.7000 TS 55 8 65
1891297N14279 1891 50 NA CS NOT_NAMED 1891-10-28 21:00:00 TS 19.2622 -82.3646 main 238 224 _____________P -1 19.2622 -82.3646 TS 55 8 59
1891297N14279 1891 50 NA CS NOT_NAMED 1891-10-29 00:00:00 TS 19.5000 -82.0000 main 228 209 _____________O -1 19.5000 -82.0000 TS 55 10 52
1891297N14279 1891 50 NA CS NOT_NAMED 1891-10-29 03:00:00 TS 19.8775 -81.5227 main 215 187 _____________P -1 19.8775 -81.5227 TS 50 12 50
1891297N14279 1891 50 NA CS NOT_NAMED 1891-10-29 06:00:00 TS 20.3000 -81.0000 main 187 123 _____________O -1 20.3000 -81.0000 TS 45 13 51
1891297N14279 1891 50 NA CS NOT_NAMED 1891-10-29 09:00:00 TS 20.6702 -80.4927 main 123 78 _____________P -1 20.6702 -80.4927 TS 37 12 53
1891297N14279 1891 50 NA CS NOT_NAMED 1891-10-29 12:00:00 TS 21.0000 -80.0000 main 78 _____________O -1 21.0000 -80.0000 TD 30 11 54

IBTrACS Databaseについて

本データベースは、米国NOAAが公開する1842年以降の世界の熱帯低気圧のベストトラックデータアーカイブInternational Best Track Archive for Climate Stewardship (IBTrACS)を、ウェブで閲覧しやすい形式に変換したものです。

最終更新日:2021-12-06